Blaricum, Netherlands
Current Conditions -  °F | °C
As of 3:55 PM on Wednesday 22 Oct 2014 (Local Time) from EHAM Reporting Station
Few Clouds Few Clouds  
Wind Chill: 52°   Ceiling: Unl
Heat Index: 52°   Visibility: 6mi
Dew Point: 45°   Wind: 21mph
Humidity: 76%   Direction: 310°NW
Pressure: 30.09"   Gusts: NA
Location:  52.27°N, 5.24°E
Report Text: EHAM 221355Z 31018KT 9999 FEW028CB 11/07 Q1019 TEMPO -SHRA
Loading
Personal Weather Stations






























Interactive Weather Map
Tropical Storm Tracking
New forecast layout! Learn more

10-Day Weather Forecast

Advertisements
Track Severe Weather on mobile